sensor_id;sensor_type;location;lat;lon;timestamp;P1;durP1;ratioP1;P2;durP2;ratioP2
14789;SDS011;7486;51.010;10.366;2022-08-25T00:01:13;5.15;;;3.80;;
14789;SDS011;7486;51.010;10.366;2022-08-25T00:03:43;4.53;;;3.72;;
14789;SDS011;7486;51.010;10.366;2022-08-25T00:06:10;5.07;;;3.80;;
14789;SDS011;7486;51.010;10.366;2022-08-25T00:08:37;5.75;;;3.92;;
14789;SDS011;7486;51.010;10.366;2022-08-25T00:11:05;5.57;;;3.85;;
14789;SDS011;7486;51.010;10.366;2022-08-25T00:13:33;4.60;;;3.80;;
14789;SDS011;7486;51.010;10.366;2022-08-25T00:16:00;5.50;;;3.83;;
14789;SDS011;7486;51.010;10.366;2022-08-25T00:18:27;6.78;;;4.05;;
14789;SDS011;7486;51.010;10.366;2022-08-25T00:20:53;4.38;;;3.88;;
14789;SDS011;7486;51.010;10.366;2022-08-25T00:23:20;5.50;;;4.10;;
14789;SDS011;7486;51.010;10.366;2022-08-25T00:25:47;7.32;;;4.15;;
14789;SDS011;7486;51.010;10.366;2022-08-25T00:28:14;4.88;;;4.22;;
14789;SDS011;7486;51.010;10.366;2022-08-25T00:30:41;6.28;;;4.53;;
14789;SDS011;7486;51.010;10.366;2022-08-25T00:33:08;4.82;;;4.00;;
14789;SDS011;7486;51.010;10.366;2022-08-25T00:35:35;4.20;;;3.80;;
14789;SDS011;7486;51.010;10.366;2022-08-25T00:38:02;4.35;;;3.83;;
14789;SDS011;7486;51.010;10.366;2022-08-25T00:40:29;5.35;;;4.20;;
14789;SDS011;7486;51.010;10.366;2022-08-25T00:42:56;4.97;;;4.47;;
14789;SDS011;7486;51.010;10.366;2022-08-25T00:45:23;5.05;;;4.10;;
14789;SDS011;7486;51.010;10.366;2022-08-25T00:47:50;4.93;;;4.20;;
14789;SDS011;7486;51.010;10.366;2022-08-25T00:50:17;5.68;;;3.95;;
14789;SDS011;7486;51.010;10.366;2022-08-25T00:52:49;6.20;;;4.15;;
14789;SDS011;7486;51.010;10.366;2022-08-25T00:55:29;4.80;;;4.00;;
14789;SDS011;7486;51.010;10.366;2022-08-25T00:58:08;6.00;;;4.35;;
14789;SDS011;7486;51.010;10.366;2022-08-25T01:00:41;4.35;;;3.90;;
14789;SDS011;7486;51.010;10.366;2022-08-25T01:03:10;8.00;;;4.10;;
14789;SDS011;7486;51.010;10.366;2022-08-25T01:05:38;6.53;;;4.28;;
14789;SDS011;7486;51.010;10.366;2022-08-25T01:08:08;5.68;;;4.35;;
14789;SDS011;7486;51.010;10.366;2022-08-25T01:10:36;6.18;;;4.30;;
14789;SDS011;7486;51.010;10.366;2022-08-25T01:13:13;5.15;;;4.40;;
14789;SDS011;7486;51.010;10.366;2022-08-25T01:15:45;5.15;;;4.53;;
14789;SDS011;7486;51.010;10.366;2022-08-25T01:18:13;5.53;;;4.25;;
14789;SDS011;7486;51.010;10.366;2022-08-25T01:20:40;4.85;;;4.38;;
14789;SDS011;7486;51.010;10.366;2022-08-25T01:23:08;6.30;;;4.32;;
14789;SDS011;7486;51.010;10.366;2022-08-25T01:28:07;4.85;;;4.35;;
14789;SDS011;7486;51.010;10.366;2022-08-25T01:30:35;8.80;;;4.97;;
14789;SDS011;7486;51.010;10.366;2022-08-25T01:33:06;6.05;;;4.88;;
14789;SDS011;7486;51.010;10.366;2022-08-25T01:35:34;5.72;;;5.00;;
14789;SDS011;7486;51.010;10.366;2022-08-25T01:38:02;5.35;;;4.55;;
14789;SDS011;7486;51.010;10.366;2022-08-25T01:40:31;6.05;;;4.55;;
14789;SDS011;7486;51.010;10.366;2022-08-25T01:45:42;6.53;;;5.40;;
14789;SDS011;7486;51.010;10.366;2022-08-25T01:48:11;5.53;;;5.00;;
14789;SDS011;7486;51.010;10.366;2022-08-25T01:50:39;5.63;;;5.10;;
14789;SDS011;7486;51.010;10.366;2022-08-25T01:53:08;5.50;;;4.45;;
14789;SDS011;7486;51.010;10.366;2022-08-25T01:55:38;6.43;;;4.80;;
14789;SDS011;7486;51.010;10.366;2022-08-25T01:58:05;5.28;;;4.75;;
14789;SDS011;7486;51.010;10.366;2022-08-25T02:00:32;4.97;;;4.47;;
14789;SDS011;7486;51.010;10.366;2022-08-25T02:02:59;4.95;;;4.40;;
14789;SDS011;7486;51.010;10.366;2022-08-25T02:05:26;9.05;;;5.20;;
14789;SDS011;7486;51.010;10.366;2022-08-25T02:07:53;5.90;;;5.30;;
14789;SDS011;7486;51.010;10.366;2022-08-25T02:10:20;6.30;;;4.80;;
14789;SDS011;7486;51.010;10.366;2022-08-25T02:12:48;5.47;;;4.95;;
14789;SDS011;7486;51.010;10.366;2022-08-25T02:15:15;5.72;;;4.97;;
14789;SDS011;7486;51.010;10.366;2022-08-25T02:17:42;6.05;;;4.88;;
14789;SDS011;7486;51.010;10.366;2022-08-25T02:20:09;5.28;;;4.78;;
14789;SDS011;7486;51.010;10.366;2022-08-25T02:22:36;6.72;;;4.90;;
14789;SDS011;7486;51.010;10.366;2022-08-25T02:25:02;6.50;;;4.80;;
14789;SDS011;7486;51.010;10.366;2022-08-25T02:27:29;4.88;;;4.40;;
14789;SDS011;7486;51.010;10.366;2022-08-25T02:29:56;5.50;;;4.22;;
14789;SDS011;7486;51.010;10.366;2022-08-25T02:32:23;5.35;;;4.85;;
14789;SDS011;7486;51.010;10.366;2022-08-25T02:34:50;5.63;;;5.13;;
14789;SDS011;7486;51.010;10.366;2022-08-25T02:37:16;5.70;;;4.80;;
14789;SDS011;7486;51.010;10.366;2022-08-25T02:39:43;5.65;;;4.57;;
14789;SDS011;7486;51.010;10.366;2022-08-25T02:42:10;7.05;;;5.80;;
14789;SDS011;7486;51.010;10.366;2022-08-25T02:44:36;6.00;;;5.22;;
14789;SDS011;7486;51.010;10.366;2022-08-25T02:47:03;6.07;;;5.15;;
14789;SDS011;7486;51.010;10.366;2022-08-25T02:49:30;6.38;;;4.38;;
14789;SDS011;7486;51.010;10.366;2022-08-25T02:51:56;5.53;;;5.03;;
14789;SDS011;7486;51.010;10.366;2022-08-25T02:54:23;5.70;;;5.10;;
14789;SDS011;7486;51.010;10.366;2022-08-25T02:56:50;5.20;;;4.70;;
14789;SDS011;7486;51.010;10.366;2022-08-25T02:59:17;5.15;;;4.65;;
14789;SDS011;7486;51.010;10.366;2022-08-25T03:01:43;5.68;;;5.15;;
14789;SDS011;7486;51.010;10.366;2022-08-25T03:04:11;5.68;;;4.60;;
14789;SDS011;7486;51.010;10.366;2022-08-25T03:06:38;7.47;;;5.13;;
14789;SDS011;7486;51.010;10.366;2022-08-25T03:09:05;6.45;;;4.38;;
14789;SDS011;7486;51.010;10.366;2022-08-25T03:11:32;5.20;;;4.50;;
14789;SDS011;7486;51.010;10.366;2022-08-25T03:13:58;5.80;;;4.72;;
14789;SDS011;7486;51.010;10.366;2022-08-25T03:16:25;5.95;;;4.88;;
14789;SDS011;7486;51.010;10.366;2022-08-25T03:18:53;6.10;;;5.20;;
14789;SDS011;7486;51.010;10.366;2022-08-25T03:21:21;5.50;;;5.00;;
14789;SDS011;7486;51.010;10.366;2022-08-25T03:23:47;5.95;;;5.05;;
14789;SDS011;7486;51.010;10.366;2022-08-25T03:26:14;6.28;;;5.40;;
14789;SDS011;7486;51.010;10.366;2022-08-25T03:28:41;5.93;;;5.20;;
14789;SDS011;7486;51.010;10.366;2022-08-25T03:31:08;5.65;;;4.78;;
14789;SDS011;7486;51.010;10.366;2022-08-25T03:33:35;6.55;;;5.25;;
14789;SDS011;7486;51.010;10.366;2022-08-25T03:36:02;5.60;;;5.10;;
14789;SDS011;7486;51.010;10.366;2022-08-25T03:38:29;5.40;;;4.90;;
14789;SDS011;7486;51.010;10.366;2022-08-25T03:40:56;5.80;;;5.30;;
14789;SDS011;7486;51.010;10.366;2022-08-25T03:43:23;5.60;;;5.05;;
14789;SDS011;7486;51.010;10.366;2022-08-25T03:45:49;5.90;;;5.38;;
14789;SDS011;7486;51.010;10.366;2022-08-25T03:48:16;6.15;;;5.55;;
14789;SDS011;7486;51.010;10.366;2022-08-25T03:50:44;6.53;;;5.85;;
14789;SDS011;7486;51.010;10.366;2022-08-25T03:53:17;6.20;;;5.70;;
14789;SDS011;7486;51.010;10.366;2022-08-25T03:55:45;7.43;;;5.97;;
14789;SDS011;7486;51.010;10.366;2022-08-25T03:58:12;6.63;;;5.97;;
14789;SDS011;7486;51.010;10.366;2022-08-25T04:00:39;7.75;;;6.32;;
14789;SDS011;7486;51.010;10.366;2022-08-25T04:03:06;7.82;;;7.00;;
14789;SDS011;7486;51.010;10.366;2022-08-25T04:05:32;8.15;;;7.45;;
14789;SDS011;7486;51.010;10.366;2022-08-25T04:07:59;7.95;;;7.25;;
14789;SDS011;7486;51.010;10.366;2022-08-25T04:10:26;7.10;;;6.40;;
14789;SDS011;7486;51.010;10.366;2022-08-25T04:12:53;7.72;;;7.00;;
14789;SDS011;7486;51.010;10.366;2022-08-25T04:15:19;8.25;;;6.82;;
14789;SDS011;7486;51.010;10.366;2022-08-25T04:17:55;7.18;;;5.70;;
14789;SDS011;7486;51.010;10.366;2022-08-25T04:20:22;7.15;;;6.53;;
14789;SDS011;7486;51.010;10.366;2022-08-25T04:22:49;6.50;;;5.90;;
14789;SDS011;7486;51.010;10.366;2022-08-25T04:25:16;7.00;;;6.30;;
14789;SDS011;7486;51.010;10.366;2022-08-25T04:27:42;7.90;;;6.50;;
14789;SDS011;7486;51.010;10.366;2022-08-25T04:30:09;6.80;;;6.20;;
14789;SDS011;7486;51.010;10.366;2022-08-25T04:32:36;8.25;;;6.82;;
14789;SDS011;7486;51.010;10.366;2022-08-25T04:35:03;8.05;;;6.60;;
14789;SDS011;7486;51.010;10.366;2022-08-25T04:37:30;7.30;;;6.60;;
14789;SDS011;7486;51.010;10.366;2022-08-25T04:39:57;7.50;;;6.68;;
14789;SDS011;7486;51.010;10.366;2022-08-25T04:42:24;7.40;;;6.57;;
14789;SDS011;7486;51.010;10.366;2022-08-25T04:44:51;7.30;;;5.90;;
14789;SDS011;7486;51.010;10.366;2022-08-25T04:47:17;6.53;;;5.80;;
14789;SDS011;7486;51.010;10.366;2022-08-25T04:49:44;7.05;;;6.05;;
14789;SDS011;7486;51.010;10.366;2022-08-25T04:52:11;8.77;;;6.28;;
14789;SDS011;7486;51.010;10.366;2022-08-25T04:54:40;6.93;;;6.32;;
14789;SDS011;7486;51.010;10.366;2022-08-25T04:57:07;9.35;;;6.28;;
14789;SDS011;7486;51.010;10.366;2022-08-25T04:59:33;7.45;;;6.15;;
14789;SDS011;7486;51.010;10.366;2022-08-25T05:02:00;10.07;;;6.78;;
14789;SDS011;7486;51.010;10.366;2022-08-25T05:04:28;7.10;;;6.38;;
14789;SDS011;7486;51.010;10.366;2022-08-25T05:06:55;6.93;;;5.85;;
14789;SDS011;7486;51.010;10.366;2022-08-25T05:09:22;10.02;;;6.72;;
14789;SDS011;7486;51.010;10.366;2022-08-25T05:11:50;9.02;;;6.20;;
14789;SDS011;7486;51.010;10.366;2022-08-25T05:14:18;7.70;;;6.40;;
14789;SDS011;7486;51.010;10.366;2022-08-25T05:16:46;6.82;;;6.22;;
14789;SDS011;7486;51.010;10.366;2022-08-25T05:19:13;7.75;;;6.93;;
14789;SDS011;7486;51.010;10.366;2022-08-25T05:21:40;8.38;;;6.28;;
14789;SDS011;7486;51.010;10.366;2022-08-25T05:24:07;6.53;;;5.93;;
14789;SDS011;7486;51.010;10.366;2022-08-25T05:26:34;7.43;;;6.72;;
14789;SDS011;7486;51.010;10.366;2022-08-25T05:29:01;8.07;;;7.13;;
14789;SDS011;7486;51.010;10.366;2022-08-25T05:31:29;9.13;;;7.07;;
14789;SDS011;7486;51.010;10.366;2022-08-25T05:33:57;9.13;;;7.70;;
14789;SDS011;7486;51.010;10.366;2022-08-25T05:36:25;7.90;;;6.68;;
14789;SDS011;7486;51.010;10.366;2022-08-25T05:38:53;9.45;;;6.57;;
14789;SDS011;7486;51.010;10.366;2022-08-25T05:41:20;9.18;;;7.20;;
14789;SDS011;7486;51.010;10.366;2022-08-25T05:43:50;10.48;;;7.38;;
14789;SDS011;7486;51.010;10.366;2022-08-25T05:46:18;7.82;;;7.13;;
14789;SDS011;7486;51.010;10.366;2022-08-25T05:48:45;7.63;;;6.85;;
14789;SDS011;7486;51.010;10.366;2022-08-25T05:51:13;7.47;;;6.70;;
14789;SDS011;7486;51.010;10.366;2022-08-25T05:53:46;7.25;;;6.55;;
14789;SDS011;7486;51.010;10.366;2022-08-25T05:56:14;8.18;;;6.95;;
14789;SDS011;7486;51.010;10.366;2022-08-25T05:58:42;7.88;;;6.65;;
14789;SDS011;7486;51.010;10.366;2022-08-25T06:01:17;8.65;;;7.15;;
14789;SDS011;7486;51.010;10.366;2022-08-25T06:03:46;8.20;;;6.78;;
14789;SDS011;7486;51.010;10.366;2022-08-25T06:06:14;7.90;;;6.68;;
14789;SDS011;7486;51.010;10.366;2022-08-25T06:08:42;7.40;;;6.70;;
14789;SDS011;7486;51.010;10.366;2022-08-25T06:11:10;7.63;;;6.38;;
14789;SDS011;7486;51.010;10.366;2022-08-25T06:13:38;7.10;;;6.47;;
14789;SDS011;7486;51.010;10.366;2022-08-25T06:16:05;7.57;;;6.45;;
14789;SDS011;7486;51.010;10.366;2022-08-25T06:18:32;7.07;;;6.38;;
14789;SDS011;7486;51.010;10.366;2022-08-25T06:21:00;9.40;;;6.10;;
14789;SDS011;7486;51.010;10.366;2022-08-25T06:23:33;8.25;;;7.07;;
14789;SDS011;7486;51.010;10.366;2022-08-25T06:25:59;8.18;;;6.70;;
14789;SDS011;7486;51.010;10.366;2022-08-25T06:28:26;7.97;;;6.95;;
14789;SDS011;7486;51.010;10.366;2022-08-25T06:30:56;10.77;;;6.97;;
14789;SDS011;7486;51.010;10.366;2022-08-25T06:33:27;11.35;;;7.53;;
14789;SDS011;7486;51.010;10.366;2022-08-25T06:35:54;12.02;;;7.05;;
14789;SDS011;7486;51.010;10.366;2022-08-25T06:38:21;9.57;;;7.10;;
14789;SDS011;7486;51.010;10.366;2022-08-25T06:40:49;10.20;;;6.95;;
14789;SDS011;7486;51.010;10.366;2022-08-25T06:43:15;8.80;;;7.03;;
14789;SDS011;7486;51.010;10.366;2022-08-25T06:45:42;9.30;;;6.57;;
14789;SDS011;7486;51.010;10.366;2022-08-25T06:48:09;9.38;;;6.28;;
14789;SDS011;7486;51.010;10.366;2022-08-25T06:50:39;8.98;;;6.30;;
14789;SDS011;7486;51.010;10.366;2022-08-25T06:53:06;7.53;;;6.57;;
14789;SDS011;7486;51.010;10.366;2022-08-25T06:55:33;8.57;;;6.35;;
14789;SDS011;7486;51.010;10.366;2022-08-25T06:58:00;10.57;;;7.25;;
14789;SDS011;7486;51.010;10.366;2022-08-25T07:00:30;8.45;;;6.78;;
14789;SDS011;7486;51.010;10.366;2022-08-25T07:02:59;9.70;;;7.95;;
14789;SDS011;7486;51.010;10.366;2022-08-25T07:05:26;8.70;;;7.50;;
14789;SDS011;7486;51.010;10.366;2022-08-25T07:08:08;8.80;;;7.25;;
14789;SDS011;7486;51.010;10.366;2022-08-25T07:10:34;9.68;;;8.02;;
14789;SDS011;7486;51.010;10.366;2022-08-25T07:13:02;10.75;;;7.35;;
14789;SDS011;7486;51.010;10.366;2022-08-25T07:15:28;10.50;;;8.27;;
14789;SDS011;7486;51.010;10.366;2022-08-25T07:17:56;10.77;;;8.35;;
14789;SDS011;7486;51.010;10.366;2022-08-25T07:20:23;9.50;;;8.02;;
14789;SDS011;7486;51.010;10.366;2022-08-25T07:22:50;10.13;;;9.02;;
14789;SDS011;7486;51.010;10.366;2022-08-25T07:25:16;13.35;;;10.05;;
14789;SDS011;7486;51.010;10.366;2022-08-25T07:27:43;11.20;;;9.73;;
14789;SDS011;7486;51.010;10.366;2022-08-25T07:30:10;15.25;;;9.68;;
14789;SDS011;7486;51.010;10.366;2022-08-25T07:32:37;12.65;;;9.07;;
14789;SDS011;7486;51.010;10.366;2022-08-25T07:35:08;14.20;;;9.43;;
14789;SDS011;7486;51.010;10.366;2022-08-25T07:37:37;12.10;;;8.50;;
14789;SDS011;7486;51.010;10.366;2022-08-25T07:40:18;15.35;;;8.13;;
14789;SDS011;7486;51.010;10.366;2022-08-25T07:42:49;12.43;;;7.00;;
14789;SDS011;7486;51.010;10.366;2022-08-25T07:45:17;10.85;;;7.38;;
14789;SDS011;7486;51.010;10.366;2022-08-25T07:47:46;11.57;;;7.32;;
14789;SDS011;7486;51.010;10.366;2022-08-25T07:50:17;14.50;;;7.82;;
14789;SDS011;7486;51.010;10.366;2022-08-25T07:52:44;10.50;;;7.20;;
14789;SDS011;7486;51.010;10.366;2022-08-25T07:55:19;13.30;;;7.80;;
14789;SDS011;7486;51.010;10.366;2022-08-25T07:57:45;13.57;;;7.68;;
14789;SDS011;7486;51.010;10.366;2022-08-25T08:00:19;13.35;;;8.55;;
14789;SDS011;7486;51.010;10.366;2022-08-25T08:02:46;12.45;;;8.48;;
14789;SDS011;7486;51.010;10.366;2022-08-25T08:05:13;12.60;;;8.35;;
14789;SDS011;7486;51.010;10.366;2022-08-25T08:07:41;10.65;;;9.15;;
14789;SDS011;7486;51.010;10.366;2022-08-25T08:10:10;12.10;;;9.07;;
14789;SDS011;7486;51.010;10.366;2022-08-25T08:12:59;11.15;;;8.05;;
14789;SDS011;7486;51.010;10.366;2022-08-25T08:15:26;10.65;;;8.27;;
14789;SDS011;7486;51.010;10.366;2022-08-25T08:17:55;12.77;;;8.32;;
14789;SDS011;7486;51.010;10.366;2022-08-25T08:20:23;11.30;;;8.60;;
14789;SDS011;7486;51.010;10.366;2022-08-25T08:22:50;13.93;;;10.15;;
14789;SDS011;7486;51.010;10.366;2022-08-25T08:25:17;11.82;;;8.68;;
14789;SDS011;7486;51.010;10.366;2022-08-25T08:27:49;12.27;;;9.82;;
14789;SDS011;7486;51.010;10.366;2022-08-25T08:30:20;12.95;;;8.90;;
14789;SDS011;7486;51.010;10.366;2022-08-25T08:32:51;10.70;;;9.70;;
14789;SDS011;7486;51.010;10.366;2022-08-25T08:35:35;13.85;;;10.40;;
14789;SDS011;7486;51.010;10.366;2022-08-25T08:38:04;11.07;;;9.68;;
14789;SDS011;7486;51.010;10.366;2022-08-25T08:40:47;11.75;;;8.52;;
14789;SDS011;7486;51.010;10.366;2022-08-25T08:43:25;10.40;;;9.30;;
14789;SDS011;7486;51.010;10.366;2022-08-25T08:45:58;11.32;;;9.05;;
14789;SDS011;7486;51.010;10.366;2022-08-25T08:51:19;13.88;;;9.15;;
14789;SDS011;7486;51.010;10.366;2022-08-25T08:53:59;14.65;;;9.00;;
14789;SDS011;7486;51.010;10.366;2022-08-25T08:56:41;12.45;;;8.50;;
14789;SDS011;7486;51.010;10.366;2022-08-25T08:59:18;10.98;;;8.35;;
14789;SDS011;7486;51.010;10.366;2022-08-25T09:01:56;10.63;;;9.45;;
14789;SDS011;7486;51.010;10.366;2022-08-25T09:07:03;11.32;;;9.43;;
14789;SDS011;7486;51.010;10.366;2022-08-25T09:09:35;12.77;;;8.80;;
14789;SDS011;7486;51.010;10.366;2022-08-25T09:17:22;13.55;;;9.40;;
14789;SDS011;7486;51.010;10.366;2022-08-25T09:20:36;10.80;;;8.80;;
14789;SDS011;7486;51.010;10.366;2022-08-25T09:29:17;10.90;;;9.02;;
14789;SDS011;7486;51.010;10.366;2022-08-25T09:31:50;12.38;;;9.90;;
14789;SDS011;7486;51.010;10.366;2022-08-25T09:34:21;12.35;;;9.70;;
14789;SDS011;7486;51.010;10.366;2022-08-25T09:36:53;12.73;;;10.07;;
14789;SDS011;7486;51.010;10.366;2022-08-25T09:39:21;10.70;;;8.13;;
14789;SDS011;7486;51.010;10.366;2022-08-25T09:41:49;9.23;;;8.23;;
14789;SDS011;7486;51.010;10.366;2022-08-25T09:44:23;11.63;;;8.60;;
14789;SDS011;7486;51.010;10.366;2022-08-25T09:49:44;10.80;;;7.32;;
14789;SDS011;7486;51.010;10.366;2022-08-25T09:54:54;9.98;;;6.80;;
14789;SDS011;7486;51.010;10.366;2022-08-25T09:57:33;11.10;;;7.22;;
14789;SDS011;7486;51.010;10.366;2022-08-25T10:00:22;7.13;;;6.43;;
14789;SDS011;7486;51.010;10.366;2022-08-25T10:03:13;7.50;;;5.85;;
14789;SDS011;7486;51.010;10.366;2022-08-25T10:06:00;9.70;;;6.65;;
14789;SDS011;7486;51.010;10.366;2022-08-25T10:08:40;9.13;;;6.13;;
14789;SDS011;7486;51.010;10.366;2022-08-25T10:16:45;7.40;;;6.35;;
14789;SDS011;7486;51.010;10.366;2022-08-25T10:19:24;8.57;;;6.75;;
14789;SDS011;7486;51.010;10.366;2022-08-25T10:24:33;7.85;;;5.63;;
14789;SDS011;7486;51.010;10.366;2022-08-25T10:27:04;10.23;;;5.80;;
14789;SDS011;7486;51.010;10.366;2022-08-25T10:35:00;8.45;;;6.50;;
14789;SDS011;7486;51.010;10.366;2022-08-25T10:43:24;10.00;;;6.82;;
14789;SDS011;7486;51.010;10.366;2022-08-25T10:46:12;11.73;;;6.63;;
14789;SDS011;7486;51.010;10.366;2022-08-25T10:48:58;10.63;;;6.22;;
14789;SDS011;7486;51.010;10.366;2022-08-25T10:56:57;9.32;;;6.78;;
14789;SDS011;7486;51.010;10.366;2022-08-25T11:04:47;7.47;;;6.18;;
14789;SDS011;7486;51.010;10.366;2022-08-25T11:09:49;8.30;;;6.15;;
14789;SDS011;7486;51.010;10.366;2022-08-25T11:12:22;7.65;;;5.45;;
14789;SDS011;7486;51.010;10.366;2022-08-25T11:15:04;5.97;;;5.45;;
14789;SDS011;7486;51.010;10.366;2022-08-25T11:17:50;7.45;;;5.60;;
14789;SDS011;7486;51.010;10.366;2022-08-25T11:20:26;9.88;;;5.63;;
14789;SDS011;7486;51.010;10.366;2022-08-25T11:25:58;11.07;;;6.07;;
14789;SDS011;7486;51.010;10.366;2022-08-25T11:30:56;7.90;;;6.30;;
14789;SDS011;7486;51.010;10.366;2022-08-25T11:33:26;7.30;;;6.20;;
14789;SDS011;7486;51.010;10.366;2022-08-25T11:35:56;7.30;;;5.55;;
14789;SDS011;7486;51.010;10.366;2022-08-25T11:38:33;9.05;;;5.68;;
14789;SDS011;7486;51.010;10.366;2022-08-25T12:01:03;8.38;;;5.88;;
14789;SDS011;7486;51.010;10.366;2022-08-25T12:08:52;6.70;;;5.22;;
14789;SDS011;7486;51.010;10.366;2022-08-25T12:14:53;6.32;;;5.15;;
14789;SDS011;7486;51.010;10.366;2022-08-25T12:24:42;6.82;;;5.55;;
14789;SDS011;7486;51.010;10.366;2022-08-25T12:35:28;8.52;;;5.60;;
14789;SDS011;7486;51.010;10.366;2022-08-25T12:38:06;5.97;;;5.15;;
14789;SDS011;7486;51.010;10.366;2022-08-25T12:46:44;6.55;;;5.80;;
14789;SDS011;7486;51.010;10.366;2022-08-25T12:51:20;7.10;;;5.65;;
14789;SDS011;7486;51.010;10.366;2022-08-25T12:53:56;8.02;;;5.93;;
14789;SDS011;7486;51.010;10.366;2022-08-25T13:04:30;9.27;;;5.70;;
14789;SDS011;7486;51.010;10.366;2022-08-25T13:15:41;8.55;;;5.03;;
14789;SDS011;7486;51.010;10.366;2022-08-25T13:18:35;6.10;;;5.50;;
14789;SDS011;7486;51.010;10.366;2022-08-25T13:23:36;6.32;;;5.47;;
14789;SDS011;7486;51.010;10.366;2022-08-25T13:26:06;5.78;;;4.85;;
14789;SDS011;7486;51.010;10.366;2022-08-25T13:28:36;6.03;;;4.93;;
14789;SDS011;7486;51.010;10.366;2022-08-25T13:31:15;5.95;;;5.13;;
14789;SDS011;7486;51.010;10.366;2022-08-25T13:33:53;8.63;;;5.15;;
14789;SDS011;7486;51.010;10.366;2022-08-25T13:36:24;6.40;;;4.93;;
14789;SDS011;7486;51.010;10.366;2022-08-25T13:38:53;6.03;;;4.82;;
14789;SDS011;7486;51.010;10.366;2022-08-25T13:41:22;6.88;;;5.05;;
14789;SDS011;7486;51.010;10.366;2022-08-25T13:43:55;6.68;;;5.05;;
14789;SDS011;7486;51.010;10.366;2022-08-25T13:46:26;7.03;;;4.85;;
14789;SDS011;7486;51.010;10.366;2022-08-25T13:49:01;6.40;;;5.32;;
14789;SDS011;7486;51.010;10.366;2022-08-25T13:51:33;5.88;;;5.20;;
14789;SDS011;7486;51.010;10.366;2022-08-25T13:54:03;5.70;;;5.07;;
14789;SDS011;7486;51.010;10.366;2022-08-25T13:56:36;7.63;;;5.03;;
14789;SDS011;7486;51.010;10.366;2022-08-25T13:59:19;7.68;;;5.47;;
14789;SDS011;7486;51.010;10.366;2022-08-25T14:01:49;7.57;;;5.03;;
14789;SDS011;7486;51.010;10.366;2022-08-25T14:09:47;7.00;;;5.53;;
14789;SDS011;7486;51.010;10.366;2022-08-25T14:15:07;6.82;;;4.68;;
14789;SDS011;7486;51.010;10.366;2022-08-25T14:17:34;5.97;;;5.30;;
14789;SDS011;7486;51.010;10.366;2022-08-25T14:20:13;7.47;;;5.03;;
14789;SDS011;7486;51.010;10.366;2022-08-25T14:22:42;9.32;;;4.60;;
14789;SDS011;7486;51.010;10.366;2022-08-25T14:25:09;8.88;;;4.88;;
14789;SDS011;7486;51.010;10.366;2022-08-25T14:27:36;8.38;;;5.63;;
14789;SDS011;7486;51.010;10.366;2022-08-25T14:30:26;8.60;;;4.97;;
14789;SDS011;7486;51.010;10.366;2022-08-25T14:32:54;6.28;;;5.00;;
14789;SDS011;7486;51.010;10.366;2022-08-25T14:35:22;7.35;;;5.10;;
14789;SDS011;7486;51.010;10.366;2022-08-25T14:37:48;9.48;;;5.20;;
14789;SDS011;7486;51.010;10.366;2022-08-25T14:40:15;6.32;;;4.57;;
14789;SDS011;7486;51.010;10.366;2022-08-25T14:42:43;8.40;;;5.00;;
14789;SDS011;7486;51.010;10.366;2022-08-25T14:45:10;7.40;;;4.97;;
14789;SDS011;7486;51.010;10.366;2022-08-25T14:47:39;7.85;;;5.50;;
14789;SDS011;7486;51.010;10.366;2022-08-25T14:50:06;10.35;;;5.18;;
14789;SDS011;7486;51.010;10.366;2022-08-25T14:52:33;5.10;;;4.60;;
14789;SDS011;7486;51.010;10.366;2022-08-25T14:55:00;7.75;;;4.45;;
14789;SDS011;7486;51.010;10.366;2022-08-25T14:57:27;7.07;;;4.72;;
14789;SDS011;7486;51.010;10.366;2022-08-25T14:59:54;8.27;;;4.57;;
14789;SDS011;7486;51.010;10.366;2022-08-25T15:02:22;6.97;;;5.20;;
14789;SDS011;7486;51.010;10.366;2022-08-25T15:04:56;8.32;;;4.72;;
14789;SDS011;7486;51.010;10.366;2022-08-25T15:07:27;5.18;;;4.22;;
14789;SDS011;7486;51.010;10.366;2022-08-25T15:09:54;11.05;;;5.20;;
14789;SDS011;7486;51.010;10.366;2022-08-25T15:12:21;6.18;;;4.63;;
14789;SDS011;7486;51.010;10.366;2022-08-25T15:15:08;5.90;;;4.80;;
14789;SDS011;7486;51.010;10.366;2022-08-25T15:17:38;8.15;;;4.97;;
14789;SDS011;7486;51.010;10.366;2022-08-25T15:20:10;7.45;;;4.53;;
14789;SDS011;7486;51.010;10.366;2022-08-25T15:22:37;7.57;;;5.03;;
14789;SDS011;7486;51.010;10.366;2022-08-25T15:25:04;7.05;;;4.63;;
14789;SDS011;7486;51.010;10.366;2022-08-25T15:27:32;6.50;;;4.68;;
14789;SDS011;7486;51.010;10.366;2022-08-25T15:29:59;5.95;;;4.80;;
14789;SDS011;7486;51.010;10.366;2022-08-25T15:32:26;6.35;;;4.35;;
14789;SDS011;7486;51.010;10.366;2022-08-25T15:34:53;6.35;;;5.18;;
14789;SDS011;7486;51.010;10.366;2022-08-25T15:37:19;7.35;;;4.57;;
14789;SDS011;7486;51.010;10.366;2022-08-25T15:39:46;5.85;;;4.65;;
14789;SDS011;7486;51.010;10.366;2022-08-25T15:42:13;6.10;;;4.53;;
14789;SDS011;7486;51.010;10.366;2022-08-25T15:44:40;7.85;;;4.75;;
14789;SDS011;7486;51.010;10.366;2022-08-25T15:47:19;9.02;;;4.70;;
14789;SDS011;7486;51.010;10.366;2022-08-25T15:49:46;6.47;;;4.68;;
14789;SDS011;7486;51.010;10.366;2022-08-25T15:52:13;7.10;;;4.55;;
14789;SDS011;7486;51.010;10.366;2022-08-25T15:54:39;5.85;;;4.40;;
14789;SDS011;7486;51.010;10.366;2022-08-25T15:57:07;6.65;;;4.90;;
14789;SDS011;7486;51.010;10.366;2022-08-25T15:59:34;5.35;;;4.68;;
14789;SDS011;7486;51.010;10.366;2022-08-25T16:02:06;7.88;;;5.05;;
14789;SDS011;7486;51.010;10.366;2022-08-25T16:04:40;5.03;;;4.53;;
14789;SDS011;7486;51.010;10.366;2022-08-25T16:07:08;6.90;;;4.50;;
14789;SDS011;7486;51.010;10.366;2022-08-25T16:09:39;7.32;;;4.40;;
14789;SDS011;7486;51.010;10.366;2022-08-25T16:12:06;7.93;;;4.80;;
14789;SDS011;7486;51.010;10.366;2022-08-25T16:14:34;7.95;;;4.45;;
14789;SDS011;7486;51.010;10.366;2022-08-25T16:17:02;7.85;;;4.43;;
14789;SDS011;7486;51.010;10.366;2022-08-25T16:19:30;5.30;;;4.50;;
14789;SDS011;7486;51.010;10.366;2022-08-25T16:21:57;5.82;;;4.55;;
14789;SDS011;7486;51.010;10.366;2022-08-25T16:24:25;6.07;;;4.57;;
14789;SDS011;7486;51.010;10.366;2022-08-25T16:26:52;8.43;;;4.93;;
14789;SDS011;7486;51.010;10.366;2022-08-25T16:29:22;6.05;;;4.30;;
14789;SDS011;7486;51.010;10.366;2022-08-25T16:31:48;7.93;;;4.78;;
14789;SDS011;7486;51.010;10.366;2022-08-25T16:34:21;4.90;;;4.30;;
14789;SDS011;7486;51.010;10.366;2022-08-25T16:36:50;5.07;;;4.57;;
14789;SDS011;7486;51.010;10.366;2022-08-25T16:39:18;7.57;;;4.70;;
14789;SDS011;7486;51.010;10.366;2022-08-25T16:41:46;5.03;;;4.10;;
14789;SDS011;7486;51.010;10.366;2022-08-25T16:44:13;7.95;;;4.45;;
14789;SDS011;7486;51.010;10.366;2022-08-25T16:46:40;5.20;;;4.68;;
14789;SDS011;7486;51.010;10.366;2022-08-25T16:49:10;5.65;;;4.25;;
14789;SDS011;7486;51.010;10.366;2022-08-25T16:51:37;7.97;;;4.68;;
14789;SDS011;7486;51.010;10.366;2022-08-25T16:54:06;7.45;;;4.93;;
14789;SDS011;7486;51.010;10.366;2022-08-25T16:56:35;6.15;;;4.53;;
14789;SDS011;7486;51.010;10.366;2022-08-25T16:59:03;6.18;;;4.88;;
14789;SDS011;7486;51.010;10.366;2022-08-25T17:01:31;4.88;;;4.03;;
14789;SDS011;7486;51.010;10.366;2022-08-25T17:03:58;6.88;;;4.47;;
14789;SDS011;7486;51.010;10.366;2022-08-25T17:06:26;5.95;;;4.57;;
14789;SDS011;7486;51.010;10.366;2022-08-25T17:08:58;7.90;;;4.63;;
14789;SDS011;7486;51.010;10.366;2022-08-25T17:11:26;6.50;;;4.90;;
14789;SDS011;7486;51.010;10.366;2022-08-25T17:13:58;5.13;;;4.18;;
14789;SDS011;7486;51.010;10.366;2022-08-25T17:16:29;4.95;;;4.13;;
14789;SDS011;7486;51.010;10.366;2022-08-25T17:19:04;4.78;;;4.32;;
14789;SDS011;7486;51.010;10.366;2022-08-25T17:21:38;7.03;;;4.13;;
14789;SDS011;7486;51.010;10.366;2022-08-25T17:24:11;6.63;;;4.57;;
14789;SDS011;7486;51.010;10.366;2022-08-25T17:26:39;5.22;;;4.25;;